Time;durP1;ratioP1;P1;durP2;ratioP2;P2;SDS_P1;SDS_P2;PMS_P1;PMS_P2;Temp;Humidity;BMP_temperature;BMP_pressure;BME280_temperature;BME280_humidity;BME280_pressure;Samples;Min_cycle;Max_cycle;Signal;HPM_P1;HPM_P2
2021/07/27 00:02:05;;;;;;;10.45;6.32;;;;;;;;;;5095019;28;20127;-81
2021/07/27 00:04:34;;;;;;;7.78;5.43;;;;;;;;;;5113759;28;20039;-82
2021/07/27 00:07:03;;;;;;;8.85;5.68;;;;;;;;;;5113228;28;20039;-82
2021/07/27 00:09:29;;;;;;;8.65;5.82;;;;;;;;;;5113238;28;20476;-82
2021/07/27 00:11:57;;;;;;;8.07;5.55;;;;;;;;;;5113210;28;20031;-82
2021/07/27 00:14:23;;;;;;;8.57;5.78;;;;;;;;;;5113015;28;20131;-83
2021/07/27 00:16:49;;;;;;;8.38;5.68;;;22.60;97.70;;;;;;5113423;28;20027;-83
2021/07/27 00:19:18;;;;;;;12.52;6.20;;;;;;;;;;5113138;28;20032;-78
2021/07/27 00:21:47;;;;;;;9.98;6.03;;;;;;;;;;5112987;28;20065;-78
2021/07/27 00:24:15;;;;;;;9.68;6.43;;;;;;;;;;5113475;28;20040;-79
2021/07/27 00:26:43;;;;;;;10.32;5.72;;;;;;;;;;5113039;28;20032;-78
2021/07/27 00:29:10;;;;;;;8.25;5.95;;;22.40;94.70;;;;;;5117160;28;20046;-79
2021/07/27 00:31:36;;;;;;;7.82;5.65;;;22.50;86.20;;;;;;5117111;28;20399;-79
2021/07/27 00:34:04;;;;;;;11.20;5.93;;;;;;;;;;5117130;28;20035;-78
2021/07/27 00:36:32;;;;;;;7.82;6.10;;;;;;;;;;5098030;28;20517;-77
2021/07/27 00:39:00;;;;;;;8.38;5.70;;;;;;;;;;5117346;28;20031;-79
2021/07/27 00:41:27;;;;;;;8.48;5.72;;;;;;;;;;5117210;28;20046;-81
2021/07/27 00:43:52;;;;;;;9.95;5.90;;;22.10;99.60;;;;;;5098808;28;20536;-80
2021/07/27 00:46:18;;;;;;;9.38;5.57;;;22.30;96.00;;;;;;5116683;28;20031;-77
2021/07/27 00:48:46;;;;;;;11.90;5.82;;;;;;;;;;5098629;28;20470;-77
2021/07/27 00:51:14;;;;;;;8.98;5.93;;;;;;;;;;5098528;28;20058;-77
2021/07/27 00:53:42;;;;;;;8.00;5.80;;;;;;;;;;5116874;28;20050;-77
2021/07/27 00:56:09;;;;;;;8.85;5.88;;;;;;;;;;5116743;28;20035;-77
2021/07/27 00:58:35;;;;;;;8.73;6.30;;;21.90;99.80;;;;;;5117021;28;20028;-77
2021/07/27 01:01:01;;;;;;;11.15;6.53;;;22.20;95.60;;;;;;5116273;28;20125;-76
2021/07/27 01:03:29;;;;;;;7.68;5.78;;;21.90;96.70;;;;;;5116232;28;20048;-81
2021/07/27 01:05:57;;;;;;;9.98;6.10;;;;;;;;;;5098798;28;20424;-81
2021/07/27 01:08:23;;;;;;;10.15;6.53;;;22.10;98.40;;;;;;5116275;28;20038;-80
2021/07/27 01:10:49;;;;;;;9.70;5.68;;;22.30;96.20;;;;;;5116346;28;20039;-79
2021/07/27 01:13:15;;;;;;;10.52;6.75;;;22.20;91.90;;;;;;5115832;28;20035;-81
2021/07/27 01:15:42;;;;;;;11.00;7.10;;;;;;;;;;5116770;28;20427;-79
2021/07/27 01:18:17;;;;;;;9.93;6.22;;;;;;;;;;5116267;28;20036;-81
2021/07/27 01:37:43;;;;;;;7.43;5.70;;;;;;;;;;5115823;28;20418;-79
2021/07/27 01:40:13;;;;;;;9.65;6.78;;;;;;;;;;5115067;28;20487;-78
2021/07/27 01:42:42;;;;;;;10.88;5.85;;;;;;;;;;5097450;28;20035;-78
2021/07/27 01:45:13;;;;;;;11.40;6.10;;;;;;;;;;5115991;28;20499;-78
2021/07/27 01:47:41;;;;;;;11.48;6.28;;;;;;;;;;5097540;28;20054;-77
2021/07/27 01:50:10;;;;;;;8.98;6.38;;;;;;;;;;5115744;28;20074;-77
2021/07/27 01:52:37;;;;;;;11.43;6.40;;;;;;;;;;5115560;28;20036;-77
2021/07/27 01:55:08;;;;;;;10.02;5.60;;;;;;;;;;5114984;28;20578;-77
2021/07/27 01:57:37;;;;;;;10.63;6.18;;;;;;;;;;5115382;28;20039;-77
2021/07/27 02:00:07;;;;;;;11.20;6.60;;;;;;;;;;5114650;28;20032;-77
2021/07/27 02:02:33;;;;;;;9.98;6.43;;;21.30;99.90;;;;;;5097819;28;20085;-76
2021/07/27 02:05:00;;;;;;;9.98;6.10;;;;;;;;;;5115435;28;20031;-78
2021/07/27 02:07:29;;;;;;;11.27;6.38;;;;;;;;;;5115073;28;20044;-77
2021/07/27 02:10:02;;;;;;;11.25;6.88;;;;;;;;;;5115554;28;20063;-76
2021/07/27 02:12:37;;;;;;;8.70;6.45;;;;;;;;;;5115070;28;20118;-76
2021/07/27 02:15:07;;;;;;;10.13;6.20;;;;;;;;;;5114858;28;20131;-78
2021/07/27 02:17:34;;;;;;;10.13;6.20;;;21.30;99.90;;;;;;5097249;28;20043;-77
2021/07/27 02:20:01;;;;;;;12.13;6.60;;;21.60;95.20;;;;;;5114819;28;20035;-75
2021/07/27 02:22:28;;;;;;;8.73;6.95;;;;;;;;;;5115196;28;20032;-76
2021/07/27 02:24:56;;;;;;;12.23;7.57;;;;;;;;;;5114911;28;20031;-76
2021/07/27 02:27:28;;;;;;;8.68;6.55;;;;;;;;;;5114876;28;20031;-76
2021/07/27 02:29:56;;;;;;;9.60;5.95;;;;;;;;;;5097311;28;20384;-77
2021/07/27 02:32:23;;;;;;;11.38;7.32;;;;;;;;;;5114733;28;20388;-77
2021/07/27 02:34:49;;;;;;;8.25;5.95;;;;;;;;;;5096410;28;20138;-76
2021/07/27 02:37:17;;;;;;;8.15;6.03;;;;;;;;;;5114745;28;20028;-76
2021/07/27 02:39:44;;;;;;;8.25;5.72;;;;;;;;;;5114399;28;20126;-77
2021/07/27 02:42:10;;;;;;;9.88;6.80;;;23.00;75.20;;;;;;5114438;28;20075;-77
2021/07/27 02:44:37;;;;;;;8.45;6.47;;;;;;;;;;5114876;28;20058;-76
2021/07/27 02:47:05;;;;;;;8.27;6.22;;;;;;;;;;5114440;28;20039;-76
2021/07/27 02:49:33;;;;;;;12.93;6.50;;;;;;;;;;5114549;28;20562;-77
2021/07/27 02:52:01;;;;;;;10.63;6.72;;;;;;;;;;5113391;28;20035;-76
2021/07/27 02:54:29;;;;;;;10.90;6.50;;;;;;;;;;5114448;28;20134;-76
2021/07/27 02:56:59;;;;;;;11.85;6.68;;;;;;;;;;5114172;28;20040;-76
2021/07/27 02:59:27;;;;;;;10.90;6.18;;;;;;;;;;5114318;28;20023;-76
2021/07/27 03:01:55;;;;;;;11.52;6.38;;;;;;;;;;5096217;28;20502;-76
2021/07/27 03:04:21;;;;;;;11.85;6.85;;;;;;;;;;5114192;28;20041;-76
2021/07/27 03:06:48;;;;;;;12.93;6.55;;;;;;;;;;5113785;28;20043;-76
2021/07/27 03:09:15;;;;;;;12.00;6.28;;;;;;;;;;5114058;28;20039;-76
2021/07/27 03:11:42;;;;;;;12.43;7.50;;;;;;;;;;5113704;28;20043;-76
2021/07/27 03:14:08;;;;;;;8.95;6.50;;;;;;;;;;5113887;28;20101;-76
2021/07/27 03:16:36;;;;;;;10.10;6.72;;;;;;;;;;5113989;28;20454;-79
2021/07/27 03:19:02;;;;;;;9.65;6.80;;;;;;;;;;5113977;28;20040;-79
2021/07/27 03:21:28;;;;;;;10.25;6.65;;;;;;;;;;5114138;28;20119;-78
2021/07/27 03:23:54;;;;;;;9.85;6.97;;;;;;;;;;5113962;28;20031;-79
2021/07/27 03:26:22;;;;;;;9.43;6.90;;;;;;;;;;5114010;28;20047;-78
2021/07/27 03:28:48;;;;;;;11.27;7.25;;;;;;;;;;5113060;28;20511;-79
2021/07/27 03:31:15;;;;;;;10.68;7.22;;;;;;;;;;5113743;28;20036;-79
2021/07/27 03:33:41;;;;;;;9.95;7.13;;;;;;;;;;5113839;28;20039;-79
2021/07/27 03:36:08;;;;;;;12.82;7.13;;;;;;;;;;5113461;28;20071;-78
2021/07/27 03:38:34;;;;;;;12.50;7.13;;;;;;;;;;5113538;28;20040;-77
2021/07/27 03:41:09;;;;;;;14.25;8.40;;;23.30;66.00;;;;;;5113672;28;20035;-77
2021/07/27 03:43:36;;;;;;;10.82;7.03;;;23.30;68.90;;;;;;5115138;28;20043;-77
2021/07/27 03:46:03;;;;;;;11.25;7.72;;;23.30;71.40;;;;;;5113471;28;20032;-77
2021/07/27 03:48:29;;;;;;;11.32;7.47;;;23.30;73.90;;;;;;5113451;28;20063;-78
2021/07/27 03:50:55;;;;;;;10.40;7.63;;;23.30;69.90;;;;;;5113721;28;20116;-76
2021/07/27 03:53:23;;;;;;;10.95;7.07;;;23.50;71.10;;;;;;5113168;28;20035;-78
2021/07/27 03:55:49;;;;;;;8.95;6.53;;;23.70;75.50;;;;;;5095978;28;20039;-77
2021/07/27 03:58:15;;;;;;;7.78;5.63;;;23.80;65.70;;;;;;5113495;28;20146;-77
2021/07/27 04:00:41;;;;;;;7.32;5.63;;;24.20;65.70;;;;;;5113003;28;20027;-78
2021/07/27 04:03:07;;;;;;;8.05;5.72;;;24.50;65.40;;;;;;5113021;28;20042;-78
2021/07/27 04:05:34;;;;;;;8.95;6.93;;;24.70;64.60;;;;;;5095124;28;20498;-78
2021/07/27 04:08:00;;;;;;;8.57;5.82;;;24.90;64.30;;;;;;5113104;28;20480;-79
2021/07/27 04:10:26;;;;;;;10.27;6.30;;;25.10;63.10;;;;;;5113718;28;20550;-79
2021/07/27 04:12:52;;;;;;;8.15;5.82;;;25.30;62.70;;;;;;5113340;28;20047;-79
2021/07/27 04:15:24;;;;;;;7.10;5.15;;;25.50;62.90;;;;;;5113132;28;20073;-77
2021/07/27 04:17:50;;;;;;;8.48;5.13;;;25.70;62.40;;;;;;5095166;28;20040;-76
2021/07/27 04:20:16;;;;;;;7.45;5.63;;;25.90;62.70;;;;;;5113443;28;20067;-77
2021/07/27 04:22:41;;;;;;;8.10;5.13;;;26.00;62.70;;;;;;5113018;28;20043;-76
2021/07/27 04:25:08;;;;;;;7.90;5.28;;;26.20;62.80;;;;;;5113353;28;20042;-76
2021/07/27 04:27:34;;;;;;;8.32;5.20;;;26.30;61.40;;;;;;5112963;28;20038;-76
2021/07/27 04:30:00;;;;;;;7.22;5.40;;;26.50;61.60;;;;;;5113348;28;20039;-76
2021/07/27 04:32:25;;;;;;;7.75;4.97;;;26.60;61.80;;;;;;5112833;28;20031;-80
2021/07/27 04:34:52;;;;;;;6.72;5.18;;;26.70;61.60;;;;;;5113238;28;20403;-78
2021/07/27 04:37:37;;;;;;;7.88;5.07;;;26.90;61.00;;;;;;5113136;28;20135;-82
2021/07/27 04:40:04;;;;;;;9.20;5.00;;;27.10;60.30;;;;;;5070995;28;20095;-83
2021/07/27 04:42:30;;;;;;;6.78;4.63;;;27.10;60.70;;;;;;5071277;28;20048;-96
2021/07/27 04:44:56;;;;;;;7.75;4.75;;;27.20;60.40;;;;;;5070238;28;20561;-89
2021/07/27 04:47:22;;;;;;;11.00;4.68;;;27.40;61.10;;;;;;5069949;28;20094;-82
2021/07/27 04:49:48;;;;;;;8.32;4.68;;;27.70;69.90;;;;;;5069365;28;20056;-82
2021/07/27 04:52:20;;;;;;;7.25;4.60;;;27.60;60.60;;;;;;5070125;28;20036;-80
2021/07/27 04:54:52;;;;;;;5.50;4.50;;;27.70;60.60;;;;;;5070018;28;20055;-80
2021/07/27 04:57:18;;;;;;;8.25;4.05;;;27.90;59.80;;;;;;5070079;28;20029;-79
2021/07/27 04:59:44;;;;;;;4.90;3.92;;;28.00;60.90;;;;;;5069914;28;20150;-78
2021/07/27 05:02:11;;;;;;;6.30;3.92;;;28.10;70.10;;;;;;5069913;28;20544;-80
2021/07/27 05:04:37;;;;;;;7.30;4.20;;;28.20;71.40;;;;;;5070204;28;20098;-84
2021/07/27 05:07:04;;;;;;;5.30;3.25;;;28.40;74.00;;;;;;5069782;28;20037;-88
2021/07/27 05:09:30;;;;;;;7.22;3.60;;;28.30;78.30;;;;;;5069794;28;20111;-82
2021/07/27 05:11:57;;;;;;;7.40;3.35;;;28.50;79.00;;;;;;5106299;28;20487;-81
2021/07/27 05:14:23;;;;;;;8.93;3.67;;;29.10;72.70;;;;;;5112904;28;20046;-79
2021/07/27 05:16:49;;;;;;;4.43;3.35;;;28.70;74.80;;;;;;5116039;28;20501;-80
2021/07/27 05:19:15;;;;;;;5.90;3.53;;;28.80;74.20;;;;;;5116143;28;20161;-84
2021/07/27 05:21:41;;;;;;;5.70;3.08;;;28.90;72.40;;;;;;5098059;28;20129;-85
2021/07/27 05:24:07;;;;;;;4.63;2.85;;;29.00;74.70;;;;;;5116157;28;20063;-76
2021/07/27 05:26:33;;;;;;;5.22;3.22;;;28.90;83.30;;;;;;5116013;28;20031;-76
2021/07/27 05:28:58;;;;;;;4.45;2.80;;;29.50;88.60;;;;;;5115876;28;20039;-76
2021/07/27 05:31:25;;;;;;;4.65;2.88;;;;;;;;;;5116260;28;20031;-78
2021/07/27 05:33:52;;;;;;;7.88;3.28;;;;;;;;;;5115020;28;20039;-75
2021/07/27 05:36:19;;;;;;;3.88;2.92;;;;;;;;;;5115311;28;20040;-78
2021/07/27 05:38:46;;;;;;;4.05;3.13;;;;;;;;;;5115757;28;20088;-76
2021/07/27 05:41:12;;;;;;;5.53;3.03;;;;;;;;;;5116113;28;20619;-78
2021/07/27 05:43:38;;;;;;;5.63;2.80;;;;;;;;;;5115350;28;20054;-77
2021/07/27 05:46:06;;;;;;;6.93;3.25;;;;;;;;;;5115673;28;20464;-79
2021/07/27 05:48:33;;;;;;;8.45;3.70;;;;;;;;;;5115904;28;20043;-76
2021/07/27 05:51:00;;;;;;;7.18;3.05;;;;;;;;;;5115575;28;20495;-84
2021/07/27 05:53:26;;;;;;;6.13;3.33;;;;;;;;;;5096957;28;20049;-86
2021/07/27 05:55:52;;;;;;;6.03;3.20;;;;;;;;;;5096920;28;20035;-80
2021/07/27 05:58:18;;;;;;;4.50;2.95;;;;;;;;;;5115188;28;20511;-83
2021/07/27 06:00:45;;;;;;;5.30;1.70;;;;;;;;;;5097185;28;20054;-81
2021/07/27 06:03:12;;;;;;;4.82;2.15;;;;;;;;;;5096776;28;20491;-78
2021/07/27 06:05:38;;;;;;;5.45;2.78;;;;;;;;;;5097021;28;20395;-81
2021/07/27 06:08:05;;;;;;;3.30;1.88;;;;;;;;;;5114882;28;20028;-85
2021/07/27 06:10:31;;;;;;;7.18;2.22;;;;;;;;;;5115078;28;20023;-80
2021/07/27 06:12:58;;;;;;;5.18;2.38;;;;;;;;;;5114198;28;20035;-80
2021/07/27 06:15:25;;;;;;;7.28;2.80;;;;;;;;;;5114802;28;20107;-81
2021/07/27 06:17:51;;;;;;;6.30;2.72;;;;;;;;;;5114208;28;20032;-79
2021/07/27 06:20:17;;;;;;;3.45;2.40;;;;;;;;;;5109258;28;20420;-84
2021/07/27 06:22:44;;;;;;;4.70;2.72;;;;;;;;;;5113810;28;20134;-80
2021/07/27 06:25:12;;;;;;;3.20;2.40;;;;;;;;;;5111930;28;20126;-79
2021/07/27 06:27:38;;;;;;;2.78;2.22;;;;;;;;;;5113668;28;20039;-79
2021/07/27 06:30:07;;;;;;;5.38;2.47;;;;;;;;;;5114271;28;20031;-80
2021/07/27 06:32:34;;;;;;;4.15;2.60;;;;;;;;;;5114662;28;20136;-82
2021/07/27 06:35:00;;;;;;;3.72;2.47;;;;;;;;;;5114655;28;20045;-83
2021/07/27 06:37:26;;;;;;;11.43;3.30;;;;;;;;;;5114612;28;20031;-83
2021/07/27 06:39:52;;;;;;;4.22;2.70;;;;;;;;;;5114418;28;20035;-89
2021/07/27 06:42:19;;;;;;;12.20;3.40;;;;;;;;;;5114728;28;20164;-87
2021/07/27 06:44:45;;;;;;;4.00;2.10;;;;;;;;;;5114395;28;20035;-86
2021/07/27 06:47:11;;;;;;;7.63;2.40;;;;;;;;;;5114128;28;20039;-81
2021/07/27 06:49:38;;;;;;;7.93;2.45;;;;;;;;;;5095865;28;20075;-83
2021/07/27 06:52:04;;;;;;;9.77;2.72;;;;;;;;;;5114694;28;20039;-84
2021/07/27 06:54:30;;;;;;;5.45;2.15;;;;;;;;;;5095758;28;20046;-89
2021/07/27 06:56:57;;;;;;;12.15;2.58;;;;;;;;;;5095720;28;20081;-77
2021/07/27 07:02:43;;;;;;;7.55;2.33;;;30.50;51.40;;;;;;5131285;27;20118;-79
2021/07/27 07:05:10;;;;;;;10.20;2.40;;;30.40;51.60;;;;;;5130300;28;20035;-80
2021/07/27 07:07:39;;;;;;;9.70;2.42;;;30.30;50.30;;;;;;5131127;28;20453;-80
2021/07/27 07:10:05;;;;;;;13.27;2.50;;;30.20;48.30;;;;;;5129064;28;20089;-80
2021/07/27 07:12:31;;;;;;;8.65;2.92;;;29.90;46.30;;;;;;5129238;28;20150;-79
2021/07/27 07:14:57;;;;;;;6.97;2.63;;;29.80;46.90;;;;;;5129164;28;20106;-82
2021/07/27 07:17:27;;;;;;;4.57;2.63;;;29.90;47.50;;;;;;5112770;28;20074;-81
2021/07/27 07:19:52;;;;;;;4.82;2.05;;;29.90;48.00;;;;;;5130677;28;20491;-80
2021/07/27 07:22:19;;;;;;;4.47;2.13;;;29.90;48.10;;;;;;5130449;28;20039;-80
2021/07/27 07:24:48;;;;;;;4.90;2.30;;;30.00;48.50;;;;;;5130767;28;20080;-81
2021/07/27 07:27:14;;;;;;;3.05;1.85;;;30.10;48.90;;;;;;5111934;28;20122;-80
2021/07/27 07:29:41;;;;;;;4.57;1.85;;;30.10;48.80;;;;;;5130182;28;20551;-80
2021/07/27 07:32:07;;;;;;;6.95;2.10;;;30.10;48.90;;;;;;5130429;28;20080;-80
2021/07/27 07:34:33;;;;;;;7.43;2.10;;;30.10;48.70;;;;;;5130432;28;20050;-79
2021/07/27 07:37:00;;;;;;;4.22;1.70;;;30.10;48.00;;;;;;5130783;28;20039;-79
2021/07/27 07:39:29;;;;;;;9.18;2.45;;;30.10;47.20;;;;;;5130592;28;20399;-79
2021/07/27 07:41:55;;;;;;;2.72;1.90;;;30.20;47.70;;;;;;5130367;28;20056;-80
2021/07/27 07:44:22;;;;;;;2.45;2.25;;;30.10;48.20;;;;;;5130848;28;20043;-80
2021/07/27 07:46:48;;;;;;;1.80;1.70;;;30.10;48.60;;;;;;5130582;28;20495;-79
2021/07/27 07:49:14;;;;;;;1.95;1.85;;;30.00;48.50;;;;;;5130193;28;20491;-79
2021/07/27 07:51:45;;;;;;;3.40;1.80;;;30.00;48.70;;;;;;5130007;28;20043;-78
2021/07/27 07:54:12;;;;;;;2.05;1.85;;;30.00;48.80;;;;;;5129017;28;20063;-79
2021/07/27 07:56:41;;;;;;;3.28;1.50;;;30.00;48.80;;;;;;5130418;28;20076;-79
2021/07/27 07:59:07;;;;;;;3.80;1.77;;;30.00;48.70;;;;;;5130043;28;20118;-80
2021/07/27 08:01:33;;;;;;;1.95;1.65;;;30.00;48.90;;;;;;5111752;28;20138;-80
2021/07/27 08:03:59;;;;;;;3.22;1.92;;;29.90;48.10;;;;;;5129344;28;20038;-84
2021/07/27 08:06:26;;;;;;;3.67;2.25;;;29.90;48.60;;;;;;5111625;28;20078;-83
2021/07/27 08:08:52;;;;;;;2.30;2.08;;;29.80;48.70;;;;;;5123916;27;20043;-79
2021/07/27 08:11:18;;;;;;;3.00;2.30;;;29.80;48.70;;;;;;5131184;27;20162;-81
2021/07/27 08:13:44;;;;;;;2.45;2.25;;;29.80;48.70;;;;;;5116607;28;20039;-81
2021/07/27 08:16:10;;;;;;;3.20;2.10;;;29.80;48.00;;;;;;5125688;27;20043;-77
2021/07/27 08:18:37;;;;;;;2.33;2.10;;;29.80;47.70;;;;;;5116818;27;20039;-77
2021/07/27 08:21:03;;;;;;;3.90;2.03;;;29.70;47.80;;;;;;5116612;27;20035;-86
2021/07/27 08:23:29;;;;;;;2.40;2.20;;;29.70;47.70;;;;;;5134946;27;20043;-85
2021/07/27 08:25:55;;;;;;;3.55;2.25;;;29.70;47.30;;;;;;5135065;27;20058;-88
2021/07/27 08:28:21;;;;;;;4.18;2.20;;;29.60;47.20;;;;;;5123522;27;20523;-88
2021/07/27 08:30:47;;;;;;;2.20;2.00;;;29.60;46.10;;;;;;5114386;28;20162;-82
2021/07/27 08:33:13;;;;;;;2.22;2.03;;;29.50;45.00;;;;;;5114109;28;20032;-83
2021/07/27 08:35:39;;;;;;;2.65;2.00;;;29.50;45.20;;;;;;5114780;28;20032;-90
2021/07/27 08:38:05;;;;;;;2.08;1.80;;;29.50;45.40;;;;;;5114422;28;20525;-85
2021/07/27 08:40:35;;;;;;;3.03;1.70;;;29.50;45.80;;;;;;5114344;28;20040;-90
2021/07/27 08:43:05;;;;;;;4.65;2.30;;;29.40;46.20;;;;;;5114351;28;20122;-87
2021/07/27 08:45:31;;;;;;;4.47;2.63;;;29.40;46.10;;;;;;5114203;28;20064;-88
2021/07/27 08:47:58;;;;;;;2.15;1.95;;;29.40;45.60;;;;;;5113947;28;20552;-85
2021/07/27 08:50:26;;;;;;;4.20;2.45;;;29.40;45.70;;;;;;5114129;28;20023;-85
2021/07/27 08:52:53;;;;;;;4.80;2.50;;;29.40;45.80;;;;;;5113872;28;20039;-77
2021/07/27 08:55:19;;;;;;;3.30;2.70;;;29.30;46.10;;;;;;5113839;28;20035;-82
2021/07/27 08:57:56;;;;;;;4.20;2.38;;;29.30;46.20;;;;;;5113843;28;20031;-83
2021/07/27 09:00:23;;;;;;;2.75;2.20;;;29.30;46.70;;;;;;5112913;28;20492;-80
2021/07/27 09:02:49;;;;;;;2.45;2.25;;;29.30;46.80;;;;;;5113635;28;20494;-82
2021/07/27 09:05:15;;;;;;;2.50;2.30;;;29.30;47.00;;;;;;5123452;27;20062;-85
2021/07/27 09:07:45;;;;;;;2.25;2.03;;;29.30;47.40;;;;;;5112198;28;20035;-79
2021/07/27 09:10:13;;;;;;;3.33;2.40;;;29.30;48.20;;;;;;5112314;28;20046;-81
2021/07/27 09:12:39;;;;;;;4.15;2.55;;;29.20;47.90;;;;;;5111692;28;20080;-81
2021/07/27 09:15:06;;;;;;;3.50;2.33;;;29.20;47.60;;;;;;5111571;28;20059;-81
2021/07/27 09:17:33;;;;;;;4.32;2.25;;;29.20;47.60;;;;;;5111558;28;20104;-82
2021/07/27 09:19:59;;;;;;;4.40;2.13;;;29.20;47.20;;;;;;5107858;28;20130;-81
2021/07/27 09:22:25;;;;;;;2.33;1.75;;;29.10;47.40;;;;;;5113628;27;20138;-80
2021/07/27 09:24:51;;;;;;;3.53;2.22;;;29.20;47.40;;;;;;5110665;28;20036;-83
2021/07/27 09:27:26;;;;;;;5.35;2.22;;;29.10;47.30;;;;;;5112639;28;20062;-82
2021/07/27 09:29:52;;;;;;;4.10;1.98;;;29.10;47.30;;;;;;5111745;28;20372;-85
2021/07/27 09:32:20;;;;;;;2.35;2.15;;;29.10;48.30;;;;;;5111543;28;20031;-85
2021/07/27 09:34:47;;;;;;;2.33;2.13;;;29.10;48.60;;;;;;5111576;28;20060;-83
2021/07/27 09:37:13;;;;;;;2.28;2.08;;;29.10;48.50;;;;;;5108036;28;20043;-86
2021/07/27 09:39:39;;;;;;;2.33;2.13;;;29.10;46.10;;;;;;5111536;28;20044;-85
2021/07/27 09:42:08;;;;;;;2.78;2.00;;;29.10;45.30;;;;;;5111511;28;20028;-86
2021/07/27 09:44:39;;;;;;;4.80;2.53;;;29.00;45.00;;;;;;5111226;28;20040;-84
2021/07/27 09:47:06;;;;;;;2.30;2.13;;;29.00;44.80;;;;;;5107327;28;20104;-79
2021/07/27 09:49:33;;;;;;;3.10;2.05;;;29.00;44.00;;;;;;5111273;28;20062;-78
2021/07/27 09:51:59;;;;;;;3.53;2.30;;;29.00;43.80;;;;;;5111328;28;20092;-80
2021/07/27 09:54:27;;;;;;;4.00;2.42;;;29.00;43.80;;;;;;5110918;28;20043;-81
2021/07/27 09:56:54;;;;;;;3.38;2.42;;;29.00;45.60;;;;;;5111179;28;20122;-78
2021/07/27 09:59:23;;;;;;;3.05;2.47;;;28.90;46.80;;;;;;5092870;28;20031;-81
2021/07/27 10:02:04;;;;;;;3.88;2.47;;;29.00;46.80;;;;;;5109849;28;20043;-78
2021/07/27 10:04:47;;;;;;;5.65;3.00;;;28.90;45.70;;;;;;5117810;27;20042;-81
2021/07/27 10:07:13;;;;;;;4.10;2.10;;;28.90;44.60;;;;;;5133183;27;20027;-82
2021/07/27 10:09:39;;;;;;;4.47;2.70;;;28.90;44.60;;;;;;5132946;27;20038;-82
2021/07/27 10:12:06;;;;;;;4.25;2.65;;;29.00;46.80;;;;;;5132893;27;20486;-82
2021/07/27 10:14:39;;;;;;;3.28;2.30;;;28.90;47.60;;;;;;5114206;27;20129;-84
2021/07/27 10:17:06;;;;;;;5.88;2.33;;;28.90;49.50;;;;;;5114481;27;20031;-84
2021/07/27 10:19:50;;;;;;;5.30;2.63;;;28.90;47.80;;;;;;5114572;27;20039;-80
2021/07/27 10:22:16;;;;;;;4.90;2.50;;;28.90;48.20;;;;;;5114378;27;20050;-88
2021/07/27 10:24:47;;;;;;;4.10;2.67;;;28.90;49.20;;;;;;5132683;27;20040;-83
2021/07/27 10:27:21;;;;;;;2.80;2.60;;;28.90;49.00;;;;;;5133237;27;20106;-78
2021/07/27 10:30:03;;;;;;;5.82;2.70;;;28.90;50.20;;;;;;5096032;28;20390;-81
2021/07/27 10:32:29;;;;;;;5.57;2.50;;;28.90;48.30;;;;;;5112056;28;20047;-77
2021/07/27 10:34:55;;;;;;;5.18;2.88;;;28.90;49.00;;;;;;5111596;28;20039;-80
2021/07/27 10:37:21;;;;;;;3.38;2.15;;;28.90;48.50;;;;;;5111524;28;20563;-78
2021/07/27 10:39:57;;;;;;;2.90;2.55;;;28.90;48.40;;;;;;5111900;28;20039;-78
2021/07/27 10:42:24;;;;;;;3.80;2.58;;;28.90;49.40;;;;;;5093962;28;20108;-77
2021/07/27 10:44:51;;;;;;;3.20;2.42;;;28.90;48.90;;;;;;5113481;28;20048;-78
2021/07/27 10:47:22;;;;;;;3.65;2.50;;;29.00;49.60;;;;;;5113323;28;20035;-77
2021/07/27 10:50:05;;;;;;;2.63;2.42;;;28.90;48.60;;;;;;5113202;28;20390;-78
2021/07/27 10:52:32;;;;;;;4.13;2.30;;;29.00;50.40;;;;;;5113361;28;20092;-78
2021/07/27 10:54:59;;;;;;;5.63;2.45;;;29.00;49.60;;;;;;5113008;28;20066;-79
2021/07/27 10:57:46;;;;;;;3.83;2.78;;;28.90;49.50;;;;;;5113411;28;20063;-78
2021/07/27 11:00:13;;;;;;;4.30;2.40;;;28.90;47.60;;;;;;5104883;28;20032;-78
2021/07/27 11:02:39;;;;;;;4.55;2.30;;;29.00;47.60;;;;;;5093510;28;20521;-79
2021/07/27 11:05:06;;;;;;;2.20;2.00;;;29.00;49.00;;;;;;5110795;28;20040;-79
2021/07/27 11:07:34;;;;;;;4.07;2.20;;;29.00;48.80;;;;;;5110013;28;20031;-79
2021/07/27 11:10:00;;;;;;;3.28;2.33;;;28.90;49.50;;;;;;5104498;28;20041;-78
2021/07/27 11:12:38;;;;;;;4.38;2.83;;;28.90;49.00;;;;;;5111783;28;20042;-79
2021/07/27 11:15:10;;;;;;;4.53;2.30;;;28.90;49.90;;;;;;5112362;28;20053;-83
2021/07/27 11:17:38;;;;;;;3.67;2.25;;;28.90;49.80;;;;;;5112370;28;20032;-87
2021/07/27 11:20:06;;;;;;;6.13;2.70;;;28.90;51.30;;;;;;5112175;28;20496;-80
2021/07/27 11:22:32;;;;;;;5.03;2.75;;;28.90;50.10;;;;;;5092935;28;20044;-80
2021/07/27 11:24:58;;;;;;;4.35;2.80;;;28.90;49.50;;;;;;5112437;28;20040;-79
2021/07/27 11:27:32;;;;;;;2.95;2.40;;;28.90;49.90;;;;;;5113142;28;20043;-80
2021/07/27 11:30:02;;;;;;;2.55;2.28;;;28.90;47.30;;;;;;5112956;28;20054;-79
2021/07/27 11:32:51;;;;;;;5.28;2.30;;;28.90;47.30;;;;;;5095227;28;20039;-79
2021/07/27 11:35:25;;;;;;;5.65;2.88;;;28.90;45.50;;;;;;5094527;28;20027;-79
2021/07/27 11:38:04;;;;;;;4.10;2.55;;;28.90;45.20;;;;;;5112897;28;20036;-79
2021/07/27 11:40:31;;;;;;;5.68;2.60;;;28.90;46.50;;;;;;5112930;28;20069;-84
2021/07/27 11:43:09;;;;;;;4.03;2.42;;;28.90;47.20;;;;;;5113004;28;20094;-87
2021/07/27 11:45:37;;;;;;;4.45;2.45;;;28.90;48.40;;;;;;5113073;28;20039;-80
2021/07/27 11:48:04;;;;;;;6.95;3.00;;;28.90;48.10;;;;;;5114035;28;20395;-79
2021/07/27 11:50:33;;;;;;;7.30;2.83;;;28.90;49.50;;;;;;5116886;28;20540;-79
2021/07/27 11:53:00;;;;;;;4.72;3.13;;;28.90;48.80;;;;;;5098798;28;20035;-79
2021/07/27 11:55:39;;;;;;;5.38;3.42;;;28.80;46.80;;;;;;5098197;28;20039;-79
2021/07/27 11:58:06;;;;;;;3.88;2.88;;;28.90;47.20;;;;;;5116528;28;20040;-79
2021/07/27 12:00:33;;;;;;;3.47;2.70;;;28.80;47.70;;;;;;5097665;28;20038;-79
2021/07/27 12:02:59;;;;;;;3.03;2.45;;;28.90;48.50;;;;;;5116342;28;20051;-79
2021/07/27 12:05:26;;;;;;;4.82;2.70;;;28.80;46.40;;;;;;5116019;28;20028;-79
2021/07/27 12:07:52;;;;;;;3.95;2.60;;;28.80;47.40;;;;;;5116041;28;20027;-79
2021/07/27 12:10:18;;;;;;;5.47;3.15;;;28.80;47.80;;;;;;5115941;28;20040;-79
2021/07/27 12:12:44;;;;;;;3.33;2.60;;;28.80;49.50;;;;;;5116159;28;20144;-78
2021/07/27 12:15:15;;;;;;;5.75;2.80;;;28.80;48.80;;;;;;5115973;28;20118;-78
2021/07/27 12:17:42;;;;;;;4.25;2.80;;;28.80;49.30;;;;;;5116209;28;20051;-79
2021/07/27 12:20:11;;;;;;;4.30;3.22;;;28.80;50.00;;;;;;5116192;28;20031;-79
2021/07/27 12:22:37;;;;;;;3.80;2.65;;;28.80;50.60;;;;;;5097733;28;20036;-79
2021/07/27 12:25:05;;;;;;;5.70;2.80;;;28.80;50.70;;;;;;5115754;28;20039;-79
2021/07/27 12:27:31;;;;;;;3.08;2.78;;;28.80;49.80;;;;;;5115613;28;20035;-79
2021/07/27 12:29:57;;;;;;;4.57;2.80;;;28.80;50.00;;;;;;5115915;28;20130;-78
2021/07/27 12:32:23;;;;;;;4.75;3.15;;;28.80;50.60;;;;;;5116050;28;20123;-78
2021/07/27 12:34:51;;;;;;;4.35;3.05;;;28.80;51.10;;;;;;5116372;28;20039;-79
2021/07/27 12:37:21;;;;;;;3.08;2.78;;;28.80;50.30;;;;;;5115778;28;20039;-79
2021/07/27 12:39:47;;;;;;;3.95;2.88;;;28.80;48.80;;;;;;5115716;28;20053;-79
2021/07/27 12:42:13;;;;;;;5.30;2.85;;;28.80;48.60;;;;;;5115564;28;20092;-79
2021/07/27 12:44:40;;;;;;;3.47;2.88;;;28.80;47.80;;;;;;5097541;28;20043;-79
2021/07/27 12:47:06;;;;;;;3.00;2.67;;;28.70;48.80;;;;;;5115527;28;20039;-79
2021/07/27 12:49:32;;;;;;;4.03;3.17;;;28.80;48.10;;;;;;5115879;28;20271;-79
2021/07/27 12:51:58;;;;;;;4.28;2.75;;;28.70;50.10;;;;;;5115924;28;20169;-79
2021/07/27 12:54:24;;;;;;;5.22;3.10;;;28.70;48.70;;;;;;5115603;28;20046;-79
2021/07/27 12:56:50;;;;;;;3.15;2.53;;;28.70;48.80;;;;;;5115873;28;20036;-79
2021/07/27 12:59:19;;;;;;;3.83;2.78;;;28.70;49.00;;;;;;5115770;28;20170;-79
2021/07/27 13:01:45;;;;;;;6.30;3.20;;;28.70;49.70;;;;;;5114318;28;20523;-79
2021/07/27 13:04:11;;;;;;;6.07;3.03;;;28.80;49.20;;;;;;5118828;28;20039;-78
2021/07/27 13:06:37;;;;;;;4.70;2.97;;;28.70;50.00;;;;;;5119733;28;20539;-79
2021/07/27 13:09:03;;;;;;;4.68;2.95;;;28.70;50.80;;;;;;5115661;28;20031;-78
2021/07/27 13:11:29;;;;;;;4.70;3.13;;;28.70;50.60;;;;;;5114025;28;20163;-79
2021/07/27 13:13:55;;;;;;;5.93;3.33;;;28.70;50.30;;;;;;5115577;28;20043;-79
2021/07/27 13:16:21;;;;;;;3.17;2.60;;;28.70;50.00;;;;;;5114644;28;20031;-79
2021/07/27 13:18:47;;;;;;;5.30;3.00;;;28.70;50.00;;;;;;5113577;28;20054;-79
2021/07/27 13:21:15;;;;;;;5.50;2.88;;;28.70;48.10;;;;;;5114659;28;20039;-79
2021/07/27 13:23:42;;;;;;;3.72;3.08;;;28.70;48.10;;;;;;5114993;28;20035;-79
2021/07/27 13:26:10;;;;;;;4.43;3.03;;;28.70;48.60;;;;;;5114470;28;20035;-78
2021/07/27 13:28:37;;;;;;;4.97;3.03;;;28.70;47.80;;;;;;5114653;28;20050;-78
2021/07/27 13:31:03;;;;;;;5.32;2.90;;;28.70;48.80;;;;;;5114590;28;20036;-78
2021/07/27 13:33:29;;;;;;;4.13;2.92;;;28.70;49.80;;;;;;5114597;28;20027;-79
2021/07/27 13:36:00;;;;;;;5.20;3.22;;;28.70;50.40;;;;;;5114344;28;20138;-79
2021/07/27 13:38:27;;;;;;;4.95;2.90;;;28.70;50.70;;;;;;5111516;27;20418;-78
2021/07/27 13:40:53;;;;;;;4.93;2.88;;;28.70;50.70;;;;;;5112277;28;20077;-79